Time;durP1;ratioP1;P1;durP2;ratioP2;P2;SDS_P1;SDS_P2;PMS_P1;PMS_P2;Temp;Humidity;BMP_temperature;BMP_pressure;BME280_temperature;BME280_humidity;BME280_pressure;Samples;Min_cycle;Max_cycle;Signal;HPM_P1;HPM_P2
2022/04/04 00:00:11;;;;;;;12.57;8.82;;;6.30;99.90;;;;;;5115471;27;20393;-75
2022/04/04 00:02:39;;;;;;;11.52;8.70;;;6.20;99.90;;;;;;5133675;27;20045;-76
2022/04/04 00:05:06;;;;;;;12.38;9.02;;;6.50;99.90;;;;;;5115374;27;20493;-74
2022/04/04 00:07:34;;;;;;;9.93;8.27;;;6.80;99.90;;;;;;5098168;27;20039;-74
2022/04/04 00:10:02;;;;;;;11.88;8.95;;;6.50;99.90;;;;;;5115049;27;20051;-75
2022/04/04 00:12:30;;;;;;;11.40;8.65;;;6.50;99.90;;;;;;5114994;27;20046;-74
2022/04/04 00:14:57;;;;;;;12.00;8.38;;;6.60;99.90;;;;;;5114840;27;20051;-74
2022/04/04 00:17:25;;;;;;;11.77;8.27;;;6.50;99.90;;;;;;5114893;27;20035;-72
2022/04/04 00:19:52;;;;;;;10.95;8.65;;;6.30;99.90;;;;;;5133424;27;20118;-75
2022/04/04 00:22:19;;;;;;;12.77;9.45;;;6.50;99.90;;;;;;5115150;27;20488;-73
2022/04/04 00:24:47;;;;;;;14.13;9.23;;;6.40;99.90;;;;;;5114734;27;20368;-74
2022/04/04 00:27:14;;;;;;;11.18;8.70;;;6.40;99.90;;;;;;5114677;27;20410;-74
2022/04/04 00:29:41;;;;;;;11.85;8.70;;;6.60;99.90;;;;;;5133142;27;20047;-75
2022/04/04 00:32:09;;;;;;;10.85;9.07;;;6.40;99.90;;;;;;5132889;27;20071;-74
2022/04/04 00:34:37;;;;;;;11.98;8.63;;;6.40;99.90;;;;;;5133094;27;20035;-74
2022/04/04 00:37:04;;;;;;;12.15;8.70;;;6.40;99.90;;;;;;5114829;27;20043;-77
2022/04/04 00:39:31;;;;;;;13.48;9.55;;;6.20;99.90;;;;;;5114383;27;20043;-77
2022/04/04 00:41:59;;;;;;;11.70;8.88;;;6.40;99.90;;;;;;5132214;27;20039;-75
2022/04/04 00:44:26;;;;;;;12.02;8.68;;;6.50;99.90;;;;;;5136473;27;20069;-74
2022/04/04 00:46:54;;;;;;;11.90;9.25;;;6.70;99.90;;;;;;5135254;27;20043;-79
2022/04/04 00:49:21;;;;;;;12.77;9.38;;;6.50;99.90;;;;;;5117929;27;20390;-74
2022/04/04 00:51:49;;;;;;;13.63;9.93;;;6.50;99.90;;;;;;5153575;27;20107;-76
2022/04/04 00:54:17;;;;;;;11.95;8.32;;;6.50;99.90;;;;;;5153626;27;20045;-75
2022/04/04 00:56:45;;;;;;;10.50;8.63;;;6.50;99.90;;;;;;5135415;27;20035;-78
2022/04/04 00:59:17;;;;;;;11.73;8.88;;;6.40;99.90;;;;;;5135168;27;20057;-75
2022/04/04 01:01:44;;;;;;;11.15;8.23;;;6.60;99.90;;;;;;5117911;27;20042;-77
2022/04/04 01:04:13;;;;;;;12.65;9.07;;;6.30;99.90;;;;;;5118074;27;20038;-75
2022/04/04 01:06:41;;;;;;;12.50;9.48;;;6.50;99.90;;;;;;5153306;27;20035;-76
2022/04/04 01:09:08;;;;;;;10.75;8.43;;;6.60;99.90;;;;;;5134634;27;20046;-76
2022/04/04 01:11:36;;;;;;;11.90;9.23;;;6.50;99.90;;;;;;5117904;27;20047;-77
2022/04/04 01:14:03;;;;;;;11.35;8.85;;;6.60;99.90;;;;;;5134983;27;20518;-79
2022/04/04 01:16:30;;;;;;;12.95;9.20;;;6.80;99.90;;;;;;5134966;27;20039;-75
2022/04/04 01:18:58;;;;;;;14.15;9.57;;;6.70;99.90;;;;;;5134736;27;20059;-78
2022/04/04 01:21:25;;;;;;;12.02;8.88;;;6.80;99.90;;;;;;5153004;27;20121;-78
2022/04/04 01:23:55;;;;;;;12.52;9.50;;;6.90;99.90;;;;;;5153330;27;20041;-76
2022/04/04 01:26:23;;;;;;;13.55;8.65;;;6.60;99.90;;;;;;5134795;27;20121;-77
2022/04/04 01:28:51;;;;;;;11.95;8.95;;;6.60;99.90;;;;;;5134509;27;20042;-76
2022/04/04 01:31:18;;;;;;;12.43;8.60;;;6.50;99.90;;;;;;5152745;27;20409;-75
2022/04/04 01:33:45;;;;;;;12.48;9.45;;;6.30;99.90;;;;;;5134960;27;20046;-76
2022/04/04 01:36:13;;;;;;;13.05;9.95;;;6.20;99.90;;;;;;5133830;27;20117;-77
2022/04/04 01:38:40;;;;;;;13.60;9.80;;;6.30;99.90;;;;;;5117443;27;20043;-74
2022/04/04 01:41:08;;;;;;;12.30;9.73;;;6.50;99.90;;;;;;5134874;27;20397;-74
2022/04/04 01:43:35;;;;;;;12.45;9.48;;;6.20;99.90;;;;;;5152999;27;20047;-76
2022/04/04 01:48:48;;;;;;;14.70;10.02;;;6.30;99.90;;;;;;5113695;28;20047;-73
2022/04/04 01:51:15;;;;;;;12.27;9.32;;;6.30;99.90;;;;;;5113898;27;20050;-74
2022/04/04 01:53:43;;;;;;;12.65;9.50;;;6.40;99.90;;;;;;5118035;27;20050;-74
2022/04/04 01:56:11;;;;;;;11.70;9.40;;;6.30;99.90;;;;;;5136306;27;20035;-75
2022/04/04 01:58:39;;;;;;;14.57;9.70;;;6.40;99.90;;;;;;5117882;27;20137;-74
2022/04/04 02:01:23;;;;;;;13.98;9.55;;;6.50;99.90;;;;;;5136327;27;20443;-72
2022/04/04 02:03:55;;;;;;;12.65;9.77;;;6.50;99.90;;;;;;5117623;27;20139;-75
2022/04/04 02:06:23;;;;;;;12.50;9.15;;;6.50;99.90;;;;;;5117533;27;20517;-75
2022/04/04 02:08:51;;;;;;;12.38;9.18;;;6.60;99.90;;;;;;5135598;27;20047;-75
2022/04/04 02:11:20;;;;;;;12.43;9.77;;;6.50;99.90;;;;;;5136049;27;20035;-74
2022/04/04 02:13:48;;;;;;;12.43;9.63;;;6.50;99.90;;;;;;5135717;27;20051;-75
2022/04/04 02:16:15;;;;;;;11.75;9.60;;;6.50;99.90;;;;;;5135986;27;20034;-76
2022/04/04 02:18:43;;;;;;;13.45;10.32;;;6.40;99.90;;;;;;5117184;27;20433;-79
2022/04/04 02:21:10;;;;;;;13.60;10.40;;;6.60;99.90;;;;;;5136098;27;20110;-75
2022/04/04 02:23:38;;;;;;;13.00;9.48;;;6.50;99.90;;;;;;5117205;27;20443;-77
2022/04/04 02:26:05;;;;;;;14.80;9.55;;;6.20;99.90;;;;;;5135808;27;20044;-79
2022/04/04 02:28:32;;;;;;;15.05;9.80;;;6.50;99.90;;;;;;5116731;27;20054;-75
2022/04/04 02:31:00;;;;;;;13.23;9.57;;;6.50;99.90;;;;;;5117319;27;20039;-74
2022/04/04 02:33:28;;;;;;;12.90;9.50;;;6.60;99.90;;;;;;5116951;27;20051;-73
2022/04/04 02:35:56;;;;;;;13.05;10.30;;;6.60;99.90;;;;;;5117579;27;20047;-74
2022/04/04 02:38:25;;;;;;;11.90;9.18;;;6.80;99.90;;;;;;5135002;27;20042;-76
2022/04/04 02:40:54;;;;;;;13.52;9.98;;;6.80;99.90;;;;;;5135229;27;20397;-72
2022/04/04 02:43:22;;;;;;;13.73;9.10;;;6.60;99.90;;;;;;5135221;27;20039;-73
2022/04/04 02:45:50;;;;;;;14.70;9.55;;;6.50;99.90;;;;;;5146255;27;20042;-73
2022/04/04 02:48:17;;;;;;;13.02;9.32;;;6.40;99.90;;;;;;5136997;27;20449;-75
2022/04/04 02:50:46;;;;;;;11.82;9.70;;;6.40;99.90;;;;;;5155774;27;20046;-74
2022/04/04 02:53:14;;;;;;;11.82;10.13;;;6.40;99.90;;;;;;5155540;27;20118;-75
2022/04/04 02:58:28;;;;;;;13.32;10.05;;;6.30;99.90;;;;;;5155328;27;20490;-72
2022/04/04 03:00:55;;;;;;;13.18;9.52;;;6.40;99.90;;;;;;5155545;27;20035;-76
2022/04/04 03:03:24;;;;;;;12.73;9.68;;;6.40;99.90;;;;;;5119157;27;20133;-75
2022/04/04 03:05:51;;;;;;;14.80;9.90;;;6.40;99.90;;;;;;5137303;27;20043;-75
2022/04/04 03:08:19;;;;;;;12.15;9.75;;;6.20;99.90;;;;;;5137146;27;20039;-74
2022/04/04 03:10:46;;;;;;;14.15;10.30;;;6.20;99.90;;;;;;5137417;27;20047;-74
2022/04/04 03:13:14;;;;;;;14.45;10.02;;;6.10;99.90;;;;;;5155545;27;20038;-74
2022/04/04 03:15:41;;;;;;;13.82;10.60;;;6.10;99.90;;;;;;5120403;27;20553;-74
2022/04/04 03:18:09;;;;;;;14.15;9.90;;;6.10;99.90;;;;;;5136648;27;20050;-72
2022/04/04 03:20:36;;;;;;;14.60;10.63;;;5.90;99.90;;;;;;5136928;27;20466;-73
2022/04/04 03:23:04;;;;;;;14.90;10.80;;;6.10;99.90;;;;;;5154906;27;20046;-74
2022/04/04 03:25:31;;;;;;;14.63;10.82;;;6.30;99.90;;;;;;5155401;27;20050;-74
2022/04/04 03:27:58;;;;;;;14.88;11.05;;;6.10;99.90;;;;;;5136345;27;20069;-74
2022/04/04 03:30:28;;;;;;;13.90;9.98;;;6.40;99.90;;;;;;5137176;27;20118;-76
2022/04/04 03:32:57;;;;;;;17.13;11.52;;;6.20;99.90;;;;;;5136322;27;20046;-76
2022/04/04 03:35:30;;;;;;;15.70;11.03;;;6.20;99.90;;;;;;5155351;27;20095;-75
2022/04/04 03:38:00;;;;;;;17.17;12.25;;;6.30;99.90;;;;;;5136321;27;20497;-75
2022/04/04 03:40:28;;;;;;;17.23;12.77;;;6.10;99.90;;;;;;5136699;27;20113;-77
2022/04/04 03:42:57;;;;;;;17.38;12.00;;;6.10;99.90;;;;;;5154599;27;20501;-74
2022/04/04 03:45:25;;;;;;;21.52;14.20;;;5.80;99.90;;;;;;5149590;27;20080;-76
2022/04/04 03:47:53;;;;;;;21.67;14.63;;;5.70;99.90;;;;;;5115955;27;20406;-73
2022/04/04 03:50:21;;;;;;;22.40;14.68;;;5.70;99.90;;;;;;5133789;27;20114;-74
2022/04/04 03:52:52;;;;;;;19.83;13.38;;;5.80;99.90;;;;;;5134043;27;20039;-76
2022/04/04 03:55:22;;;;;;;20.92;14.82;;;5.70;99.90;;;;;;5116118;27;20062;-74
2022/04/04 03:57:50;;;;;;;22.52;16.30;;;5.90;99.90;;;;;;5098429;27;20142;-74
2022/04/04 04:00:19;;;;;;;22.48;15.23;;;5.90;99.90;;;;;;5115476;27;20039;-75
2022/04/04 04:02:46;;;;;;;25.95;17.27;;;6.00;99.90;;;;;;5133893;27;20038;-77
2022/04/04 04:05:14;;;;;;;28.33;18.13;;;5.80;99.90;;;;;;5115744;27;20047;-76
2022/04/04 04:07:42;;;;;;;23.02;15.65;;;5.90;99.90;;;;;;5133748;27;20055;-75
2022/04/04 04:10:13;;;;;;;19.83;14.45;;;5.90;99.90;;;;;;5115385;27;20574;-75
2022/04/04 04:12:42;;;;;;;16.05;12.43;;;5.70;99.90;;;;;;5133831;27;20042;-74
2022/04/04 04:15:18;;;;;;;18.45;12.25;;;5.60;99.90;;;;;;5098498;27;20065;-75
2022/04/04 04:17:46;;;;;;;17.92;11.23;;;5.50;99.90;;;;;;5133208;27;20112;-77
2022/04/04 04:20:19;;;;;;;18.20;12.75;;;5.60;99.90;;;;;;5098702;27;20054;-73
2022/04/04 04:22:55;;;;;;;16.00;11.23;;;5.70;99.90;;;;;;5133215;27;20489;-75
2022/04/04 04:25:27;;;;;;;15.88;11.70;;;5.80;99.90;;;;;;5115043;27;20631;-76
2022/04/04 04:27:57;;;;;;;15.70;11.55;;;5.70;99.90;;;;;;5133188;27;20039;-75
2022/04/04 04:30:24;;;;;;;16.25;11.45;;;5.80;99.90;;;;;;5114631;27;20395;-77
2022/04/04 04:32:55;;;;;;;16.27;11.25;;;5.80;99.90;;;;;;5098051;27;20467;-74
2022/04/04 04:35:23;;;;;;;19.25;11.93;;;5.70;99.90;;;;;;5133019;27;20065;-74
2022/04/04 04:37:51;;;;;;;14.75;11.30;;;5.90;99.90;;;;;;5132770;27;20092;-75
2022/04/04 04:40:19;;;;;;;14.15;10.68;;;6.30;99.90;;;;;;5114796;27;20066;-73
2022/04/04 04:42:48;;;;;;;13.80;10.70;;;6.50;99.90;;;;;;5132791;27;20041;-75
2022/04/04 04:45:15;;;;;;;16.85;11.80;;;6.50;99.90;;;;;;5134921;27;20050;-74
2022/04/04 04:47:43;;;;;;;17.45;11.40;;;6.60;99.90;;;;;;5117755;27;20038;-72
2022/04/04 04:50:13;;;;;;;17.88;11.70;;;6.40;99.90;;;;;;5153412;27;20103;-74
2022/04/04 04:52:41;;;;;;;14.37;10.90;;;6.60;99.90;;;;;;5135196;27;20043;-76
2022/04/04 04:55:09;;;;;;;14.00;10.55;;;6.60;99.90;;;;;;5135143;27;20469;-74
2022/04/04 04:57:37;;;;;;;12.55;9.95;;;6.70;99.90;;;;;;5134658;27;20488;-75
2022/04/04 05:00:07;;;;;;;15.48;11.07;;;6.20;99.90;;;;;;5134908;27;20054;-73
2022/04/04 05:02:35;;;;;;;16.20;11.20;;;6.40;99.90;;;;;;5134945;27;20079;-76
2022/04/04 05:05:04;;;;;;;14.88;11.18;;;6.50;99.90;;;;;;5144284;27;20351;-71
2022/04/04 05:07:32;;;;;;;15.27;11.25;;;6.30;99.90;;;;;;5119252;27;20047;-75
2022/04/04 05:10:00;;;;;;;14.13;11.23;;;6.60;99.90;;;;;;5114113;27;20525;-75
2022/04/04 05:12:27;;;;;;;14.68;10.52;;;6.80;99.90;;;;;;5114157;27;20050;-79
2022/04/04 05:14:55;;;;;;;15.20;10.35;;;6.90;99.90;;;;;;5131896;27;20084;-76
2022/04/04 05:17:22;;;;;;;16.85;11.70;;;6.60;99.90;;;;;;5113946;27;20386;-76
2022/04/04 05:19:51;;;;;;;14.07;10.55;;;6.50;99.90;;;;;;5113796;27;20503;-76
2022/04/04 05:22:19;;;;;;;17.98;11.90;;;6.50;99.90;;;;;;5131130;27;20391;-75
2022/04/04 05:24:46;;;;;;;14.13;10.68;;;6.30;99.90;;;;;;5113668;27;20076;-75
2022/04/04 05:27:14;;;;;;;15.30;10.90;;;6.20;99.90;;;;;;5130983;27;20043;-75
2022/04/04 05:29:41;;;;;;;15.65;10.93;;;6.40;99.90;;;;;;5113714;27;20035;-75
2022/04/04 05:32:08;;;;;;;16.65;10.85;;;6.60;99.90;;;;;;5113914;28;20043;-75
2022/04/04 05:34:36;;;;;;;14.15;10.20;;;6.50;99.90;;;;;;5131554;27;20429;-73
2022/04/04 05:37:04;;;;;;;16.10;11.40;;;6.70;99.90;;;;;;5132020;28;20124;-74
2022/04/04 05:39:31;;;;;;;14.85;10.48;;;7.00;99.90;;;;;;5113349;28;20536;-74
2022/04/04 05:41:58;;;;;;;13.77;10.38;;;7.00;99.90;;;;;;5111936;28;20112;-74
2022/04/04 05:44:26;;;;;;;14.95;10.90;;;7.10;99.90;;;;;;5111646;28;20394;-74
2022/04/04 05:46:54;;;;;;;16.25;10.60;;;7.10;99.90;;;;;;5126172;27;20053;-73
2022/04/04 05:49:21;;;;;;;15.10;10.70;;;7.20;99.90;;;;;;5132213;27;20503;-74
2022/04/04 05:51:48;;;;;;;67.93;38.72;;;7.40;99.90;;;;;;5150561;27;20038;-73
2022/04/04 05:54:28;;;;;;;95.55;54.15;;;7.50;99.90;;;;;;5132380;27;20042;-75
2022/04/04 05:56:55;;;;;;;21.52;17.05;;;7.60;99.90;;;;;;5133926;27;20522;-73
2022/04/04 05:59:26;;;;;;;20.63;12.82;;;7.70;99.90;;;;;;5134388;27;20043;-71
2022/04/04 06:01:55;;;;;;;14.63;11.65;;;7.80;99.90;;;;;;5152463;27;20363;-71
2022/04/04 06:04:23;;;;;;;15.02;10.73;;;7.80;99.90;;;;;;5152775;27;20109;-71
2022/04/04 06:06:50;;;;;;;38.75;24.20;;;7.80;99.90;;;;;;5133781;27;20046;-73
2022/04/04 06:09:17;;;;;;;93.80;50.92;;;7.80;99.90;;;;;;5147260;27;20454;-71
2022/04/04 06:11:48;;;;;;;170.55;92.63;;;8.00;99.90;;;;;;5118873;28;20044;-72
2022/04/04 06:14:15;;;;;;;187.13;98.95;;;8.00;99.90;;;;;;5100344;28;20039;-72
2022/04/04 06:16:45;;;;;;;26.70;20.70;;;8.00;99.90;;;;;;5110876;28;20053;-73
2022/04/04 06:19:16;;;;;;;16.95;13.02;;;8.00;99.90;;;;;;5092476;28;20059;-74
2022/04/04 06:21:44;;;;;;;16.85;11.45;;;7.60;99.90;;;;;;5076680;28;20061;-75
2022/04/04 06:24:12;;;;;;;14.95;11.23;;;7.60;99.90;;;;;;5112232;28;20039;-73
2022/04/04 06:26:40;;;;;;;14.25;10.60;;;7.70;99.90;;;;;;5112988;28;20069;-74
2022/04/04 06:29:09;;;;;;;18.08;11.50;;;7.60;99.90;;;;;;5113478;28;20035;-75
2022/04/04 06:31:37;;;;;;;14.27;10.90;;;7.60;99.90;;;;;;5131395;28;20043;-73
2022/04/04 06:34:05;;;;;;;14.38;10.60;;;7.50;99.90;;;;;;5113509;28;20486;-72
2022/04/04 06:36:32;;;;;;;16.23;11.23;;;7.50;99.90;;;;;;5113148;28;20127;-73
2022/04/04 06:39:00;;;;;;;16.42;12.20;;;7.30;99.90;;;;;;5132723;27;20510;-73
2022/04/04 06:41:27;;;;;;;18.85;10.88;;;7.50;99.90;;;;;;5134500;27;20039;-74
2022/04/04 06:43:54;;;;;;;17.38;10.88;;;7.50;99.90;;;;;;5117447;27;20043;-71
2022/04/04 06:46:22;;;;;;;15.88;10.95;;;7.70;99.90;;;;;;5124443;27;20057;-73
2022/04/04 06:48:51;;;;;;;17.30;11.63;;;7.90;99.90;;;;;;5155704;27;20382;-72
2022/04/04 06:51:19;;;;;;;16.00;11.05;;;8.10;99.90;;;;;;5155822;27;20126;-73
2022/04/04 06:53:47;;;;;;;20.08;11.93;;;8.00;99.90;;;;;;5155991;27;20045;-73
2022/04/04 06:56:14;;;;;;;15.57;11.80;;;8.10;99.90;;;;;;5118103;27;20066;-72
2022/04/04 06:58:41;;;;;;;19.80;12.02;;;8.40;99.90;;;;;;5099408;27;20049;-73
2022/04/04 07:01:09;;;;;;;19.48;12.30;;;8.40;99.90;;;;;;5134233;27;20039;-73
2022/04/04 07:03:37;;;;;;;23.25;15.43;;;8.10;99.90;;;;;;5116587;27;20432;-72
2022/04/04 07:06:07;;;;;;;29.70;20.25;;;8.50;99.90;;;;;;5116740;27;20047;-74
2022/04/04 07:08:34;;;;;;;31.98;22.83;;;8.90;99.90;;;;;;5134431;27;20046;-74
2022/04/04 07:11:03;;;;;;;19.80;14.48;;;9.10;99.90;;;;;;5133663;27;20394;-76
2022/04/04 07:13:32;;;;;;;16.65;11.88;;;9.20;99.90;;;;;;5116432;27;20485;-73
2022/04/04 07:15:59;;;;;;;18.05;12.20;;;9.20;99.90;;;;;;5134744;27;20047;-73
2022/04/04 07:18:27;;;;;;;15.98;11.73;;;8.90;99.90;;;;;;5134054;27;20503;-76
2022/04/04 07:20:54;;;;;;;19.42;12.15;;;8.80;99.90;;;;;;5095712;27;20134;-76
2022/04/04 07:23:22;;;;;;;18.27;12.18;;;8.70;99.90;;;;;;5115132;27;20039;-74
2022/04/04 07:25:50;;;;;;;19.58;12.00;;;9.00;99.90;;;;;;5114920;27;20488;-74
2022/04/04 07:28:20;;;;;;;19.45;12.98;;;9.00;99.90;;;;;;5112483;27;20031;-73
2022/04/04 07:30:49;;;;;;;22.02;11.77;;;9.20;99.90;;;;;;5132845;27;20113;-72
2022/04/04 07:33:18;;;;;;;18.20;11.57;;;9.40;99.90;;;;;;5111675;27;20038;-76
2022/04/04 07:35:46;;;;;;;14.38;11.30;;;9.30;99.90;;;;;;5114101;27;20136;-73
2022/04/04 07:38:14;;;;;;;17.10;11.15;;;9.50;99.90;;;;;;5132206;27;20479;-73
2022/04/04 07:40:42;;;;;;;27.00;17.23;;;9.60;99.90;;;;;;5114403;27;20062;-74
2022/04/04 07:43:10;;;;;;;25.98;15.85;;;10.00;99.90;;;;;;5114719;27;20670;-73
2022/04/04 07:45:38;;;;;;;81.25;48.92;;;10.40;99.90;;;;;;5114866;27;20047;-72
2022/04/04 07:48:11;;;;;;;13.10;10.75;;;10.30;99.90;;;;;;5097146;27;20035;-74
2022/04/04 07:50:41;;;;;;;24.35;11.48;;;9.90;99.90;;;;;;5111918;27;20043;-75
2022/04/04 07:53:09;;;;;;;17.70;10.88;;;9.70;99.90;;;;;;5133110;27;20393;-74
2022/04/04 07:55:36;;;;;;;14.30;10.48;;;9.50;99.90;;;;;;5133901;27;20522;-76
2022/04/04 07:58:04;;;;;;;19.55;10.48;;;9.10;99.90;;;;;;5114217;27;20037;-75
2022/04/04 08:00:32;;;;;;;15.20;10.73;;;9.20;99.90;;;;;;5132520;27;20134;-73
2022/04/04 08:02:59;;;;;;;16.10;10.27;;;9.30;99.90;;;;;;5132084;27;20069;-73
2022/04/04 08:05:27;;;;;;;13.70;10.07;;;9.70;99.90;;;;;;5097365;27;20051;-76
2022/04/04 08:07:54;;;;;;;15.88;11.48;;;9.80;99.90;;;;;;5114864;27;20405;-75
2022/04/04 08:10:25;;;;;;;19.48;11.48;;;9.80;99.90;;;;;;5132721;27;20039;-75
2022/04/04 08:12:53;;;;;;;16.98;11.10;;;10.00;99.90;;;;;;5132965;27;20110;-73
2022/04/04 08:15:21;;;;;;;18.75;11.50;;;10.00;99.90;;;;;;5133108;27;20368;-75
2022/04/04 08:17:55;;;;;;;23.70;11.52;;;10.10;99.90;;;;;;5130113;27;20039;-74
2022/04/04 08:20:23;;;;;;;14.80;10.32;;;10.20;99.90;;;;;;5132066;27;20052;-74
2022/04/04 08:22:50;;;;;;;16.27;10.82;;;10.40;99.90;;;;;;5132237;27;20035;-75
2022/04/04 08:25:18;;;;;;;16.10;9.88;;;10.40;99.70;;;;;;5117443;27;20053;-75
2022/04/04 08:27:45;;;;;;;12.77;8.73;;;10.40;99.60;;;;;;5114059;27;20043;-74
2022/04/04 08:30:17;;;;;;;14.85;10.18;;;10.40;98.30;;;;;;5111531;27;20054;-75
2022/04/04 08:32:45;;;;;;;12.82;9.48;;;10.50;97.90;;;;;;5113756;27;20134;-76
2022/04/04 08:35:14;;;;;;;16.58;9.55;;;10.30;97.70;;;;;;5131881;27;20114;-72
2022/04/04 08:37:43;;;;;;;14.40;9.80;;;10.30;98.90;;;;;;5113312;27;20402;-77
2022/04/04 08:40:13;;;;;;;15.80;10.33;;;10.20;99.10;;;;;;5113827;27;20035;-75
2022/04/04 08:42:41;;;;;;;14.63;10.77;;;10.50;99.10;;;;;;5110908;27;20390;-76
2022/04/04 08:45:09;;;;;;;15.38;10.73;;;10.60;98.50;;;;;;5097304;27;20365;-75
2022/04/04 08:47:38;;;;;;;17.80;10.18;;;10.50;98.80;;;;;;5113012;27;20490;-73
2022/04/04 08:50:06;;;;;;;15.18;11.07;;;10.40;99.00;;;;;;5112796;27;20443;-77
2022/04/04 08:52:34;;;;;;;17.55;11.02;;;10.60;98.70;;;;;;5095854;27;20138;-75
2022/04/04 08:55:01;;;;;;;14.63;11.40;;;10.80;98.40;;;;;;5113010;27;20035;-73
2022/04/04 08:57:29;;;;;;;14.48;10.18;;;10.40;97.90;;;;;;5131173;27;20504;-74
2022/04/04 08:59:56;;;;;;;14.75;9.93;;;10.50;98.10;;;;;;5131463;27;20031;-75
2022/04/04 09:02:23;;;;;;;16.55;9.40;;;10.50;97.10;;;;;;5127813;27;20402;-77
2022/04/04 09:04:52;;;;;;;13.63;9.02;;;10.80;96.90;;;;;;5131093;27;20031;-75
2022/04/04 09:07:21;;;;;;;17.73;9.00;;;10.70;95.60;;;;;;5131191;27;20047;-71
2022/04/04 09:09:50;;;;;;;12.30;8.48;;;10.90;95.70;;;;;;5128518;27;20102;-71
2022/04/04 09:12:22;;;;;;;11.15;8.07;;;11.20;94.80;;;;;;5130928;27;20035;-76
2022/04/04 09:14:54;;;;;;;12.05;7.78;;;10.80;93.20;;;;;;5131066;27;20114;-74
2022/04/04 09:17:24;;;;;;;10.90;7.68;;;10.70;93.30;;;;;;5110173;27;20031;-76
2022/04/04 09:19:52;;;;;;;9.80;7.47;;;10.90;92.70;;;;;;5131037;27;20043;-74
2022/04/04 09:22:21;;;;;;;11.57;7.13;;;10.90;91.70;;;;;;5128615;27;20071;-75
2022/04/04 09:24:57;;;;;;;57.78;35.70;;;10.50;92.70;;;;;;5111906;27;20134;-76
2022/04/04 09:27:27;;;;;;;62.03;40.65;;;11.30;96.50;;;;;;5110403;28;20087;-76
2022/04/04 09:29:55;;;;;;;13.50;11.07;;;11.70;96.60;;;;;;5112088;27;20039;-75
2022/04/04 09:32:35;;;;;;;11.77;7.78;;;11.60;92.30;;;;;;5095214;27;20051;-74
2022/04/04 09:35:13;;;;;;;13.15;8.27;;;11.30;90.40;;;;;;5128337;28;20042;-72
2022/04/04 09:37:43;;;;;;;11.55;7.97;;;11.20;91.00;;;;;;5110245;28;20073;-72
2022/04/04 09:40:23;;;;;;;9.55;7.10;;;11.10;91.20;;;;;;5130669;28;20110;-71
2022/04/04 09:42:54;;;;;;;;;;;11.30;90.00;;;;;;5129488;28;20045;-73
2022/04/04 09:45:26;;;;;;;8.93;6.43;;;11.70;88.90;;;;;;5132702;27;19973;-72
2022/04/04 09:48:09;;;;;;;9.07;6.47;;;11.90;87.70;;;;;;5112294;28;20496;-73
2022/04/04 09:50:49;;;;;;;11.07;7.45;;;12.00;86.90;;;;;;5111694;28;20039;-72
2022/04/04 09:53:19;;;;;;;;;;;12.10;86.30;;;;;;5112124;28;20130;-75
2022/04/04 09:55:55;;;;;;;12.75;8.75;;;11.40;90.20;;;;;;5110416;28;19927;-71
2022/04/04 09:58:25;;;;;;;12.35;8.60;;;11.20;91.20;;;;;;5130754;28;20443;-73
2022/04/04 10:00:54;;;;;;;13.82;8.93;;;11.00;91.90;;;;;;5112306;28;20047;-76
2022/04/04 10:03:23;;;;;;;15.43;9.18;;;10.90;92.10;;;;;;5112356;28;20039;-74
2022/04/04 10:05:57;;;;;;;13.37;9.70;;;11.00;92.40;;;;;;5130708;28;20488;-73
2022/04/04 10:08:25;;;;;;;11.85;8.43;;;11.20;92.60;;;;;;5111766;28;20039;-74
2022/04/04 10:10:56;;;;;;;12.07;9.38;;;11.00;92.40;;;;;;5112066;28;20081;-73
2022/04/04 10:13:25;;;;;;;11.27;8.55;;;11.00;92.60;;;;;;5114235;27;20053;-73
2022/04/04 10:15:53;;;;;;;14.10;9.15;;;11.10;91.50;;;;;;5099538;27;20053;-75
2022/04/04 10:18:21;;;;;;;12.80;9.10;;;11.40;92.00;;;;;;5115326;27;20109;-74
2022/04/04 10:20:56;;;;;;;14.02;9.52;;;11.50;91.10;;;;;;5113508;27;20483;-74
2022/04/04 10:23:26;;;;;;;14.65;8.90;;;11.70;90.20;;;;;;5098797;27;20540;-75
2022/04/04 10:25:55;;;;;;;14.07;9.77;;;11.50;90.20;;;;;;5133886;27;20035;-76
2022/04/04 10:28:34;;;;;;;14.18;8.77;;;11.40;90.80;;;;;;5093677;27;20124;-73
2022/04/04 10:31:12;;;;;;;12.38;9.43;;;11.50;90.00;;;;;;5134105;27;20039;-76
2022/04/04 10:33:40;;;;;;;13.93;9.40;;;11.60;90.50;;;;;;5115464;27;20126;-76
2022/04/04 10:36:15;;;;;;;15.02;9.98;;;11.70;91.00;;;;;;5134317;27;20394;-75
2022/04/04 10:38:45;;;;;;;13.43;9.45;;;11.70;90.90;;;;;;5099424;27;20051;-73
2022/04/04 10:41:18;;;;;;;13.73;9.98;;;12.00;90.10;;;;;;5134977;27;20082;-74
2022/04/04 10:43:50;;;;;;;17.73;10.30;;;12.00;89.10;;;;;;5099253;27;20035;-74
2022/04/04 10:46:22;;;;;;;14.00;10.23;;;11.90;90.00;;;;;;5116582;27;20059;-74
2022/04/04 10:48:58;;;;;;;13.45;8.93;;;11.90;88.80;;;;;;5113715;27;20041;-75
2022/04/04 10:51:31;;;;;;;12.32;9.18;;;11.80;89.00;;;;;;5095600;28;20391;-74
2022/04/04 10:54:04;;;;;;;12.93;8.75;;;11.80;88.80;;;;;;5114078;28;20111;-74
2022/04/04 10:56:37;;;;;;;11.77;8.82;;;11.90;88.30;;;;;;5114194;28;20043;-76
2022/04/04 10:59:30;;;;;;;18.17;8.73;;;12.20;88.00;;;;;;5096620;28;20499;-73
2022/04/04 11:02:02;;;;;;;10.02;8.15;;;11.90;86.70;;;;;;5092518;28;20077;-74
2022/04/04 11:04:36;;;;;;;11.80;8.40;;;11.70;88.50;;;;;;5115569;27;20076;-74
2022/04/04 11:10:03;;;;;;;13.60;10.27;;;12.30;88.60;;;;;;5130210;27;20431;-72
2022/04/04 11:13:07;;;;;;;12.05;8.95;;;12.40;86.50;;;;;;5116263;27;20041;-76
2022/04/04 11:15:49;;;;;;;12.23;8.30;;;12.10;87.50;;;;;;5133589;27;20410;-79
2022/04/04 11:18:17;;;;;;;11.80;8.40;;;12.40;88.10;;;;;;5115449;27;20047;-76
2022/04/04 11:21:00;;;;;;;12.98;8.45;;;12.40;86.30;;;;;;5131253;27;20509;-74
2022/04/04 11:23:34;;;;;;;15.10;8.52;;;12.30;87.40;;;;;;5131152;27;20119;-74
2022/04/04 11:26:08;;;;;;;10.30;7.47;;;12.30;87.50;;;;;;5132976;27;20421;-74
2022/04/04 11:28:38;;;;;;;18.25;7.85;;;12.30;84.30;;;;;;5113074;27;20053;-76
2022/04/04 11:31:07;;;;;;;;;;;12.30;84.00;;;;;;5134126;27;20050;-75
2022/04/04 11:34:11;;;;;;;10.90;7.32;;;12.20;84.40;;;;;;5118531;27;19964;-76
2022/04/04 11:36:43;;;;;;;13.52;8.05;;;12.30;84.50;;;;;;5108289;27;20052;-78
2022/04/04 11:39:16;;;;;;;11.75;8.07;;;12.50;83.90;;;;;;5124330;27;20371;-77
2022/04/04 11:41:53;;;;;;;13.80;7.90;;;12.40;84.40;;;;;;5096229;27;20468;-75
2022/04/04 11:44:26;;;;;;;10.10;7.38;;;12.10;85.60;;;;;;5114524;27;20118;-74
2022/04/04 11:47:08;;;;;;;10.85;7.65;;;12.20;85.50;;;;;;5121557;27;20146;-75
2022/04/04 11:49:37;;;;;;;11.50;7.05;;;12.60;84.20;;;;;;5121007;27;20042;-73
2022/04/04 11:52:07;;;;;;;8.68;6.28;;;12.70;81.20;;;;;;5106011;27;20053;-74
2022/04/04 11:54:44;;;;;;;10.68;6.30;;;12.50;81.00;;;;;;5133742;27;20132;-73
2022/04/04 11:57:12;;;;;;;9.98;7.22;;;12.40;80.00;;;;;;5133697;27;20398;-73
2022/04/04 11:59:45;;;;;;;10.80;6.97;;;12.70;81.00;;;;;;5098522;27;20138;-72
2022/04/04 12:02:14;;;;;;;22.40;14.27;;;12.80;82.10;;;;;;5098545;27;20050;-73
2022/04/04 12:04:43;;;;;;;13.40;9.93;;;12.90;88.10;;;;;;5115437;27;20043;-73
2022/04/04 12:07:11;;;;;;;17.48;9.52;;;12.90;88.00;;;;;;5098314;27;20145;-73
2022/04/04 12:09:39;;;;;;;12.25;6.85;;;13.00;83.60;;;;;;5096447;27;20066;-71
2022/04/04 12:12:08;;;;;;;10.95;6.82;;;12.90;82.90;;;;;;5094639;27;20043;-74
2022/04/04 12:14:41;;;;;;;8.85;6.68;;;12.80;82.70;;;;;;5132363;27;21336;-73
2022/04/04 12:17:13;;;;;;;11.13;8.32;;;12.80;83.00;;;;;;5095741;27;20073;-71
2022/04/04 12:19:47;;;;;;;13.60;7.90;;;12.60;84.70;;;;;;5094437;27;20418;-73
2022/04/04 12:25:06;;;;;;;10.93;7.43;;;12.70;81.90;;;;;;5113651;27;20049;-74
2022/04/04 12:27:34;;;;;;;10.88;6.97;;;12.80;81.60;;;;;;5113823;27;20164;-72
2022/04/04 12:30:05;;;;;;;9.05;6.82;;;13.10;80.80;;;;;;5110730;27;20444;-71
2022/04/04 12:32:37;;;;;;;10.60;7.25;;;13.00;80.90;;;;;;5096692;27;20039;-74
2022/04/04 12:35:08;;;;;;;9.27;5.63;;;13.00;79.60;;;;;;5094340;27;20079;-71
2022/04/04 12:37:41;;;;;;;9.25;6.55;;;12.90;79.40;;;;;;5112026;27;20043;-74
2022/04/04 12:40:23;;;;;;;8.90;6.30;;;12.90;77.10;;;;;;5111810;27;20035;-71
2022/04/04 12:42:53;;;;;;;10.20;6.68;;;12.80;77.90;;;;;;5111799;27;20100;-72
2022/04/04 12:45:20;;;;;;;11.05;6.22;;;12.40;78.60;;;;;;5131668;27;20031;-71
2022/04/04 12:48:15;;;;;;;8.90;6.40;;;12.30;79.70;;;;;;5132433;27;20428;-72
2022/04/04 12:50:46;;;;;;;8.27;6.10;;;12.40;78.10;;;;;;5098378;27;20043;-71
2022/04/04 12:53:16;;;;;;;10.32;6.45;;;12.30;78.70;;;;;;5131591;27;20063;-74
2022/04/04 12:56:06;;;;;;;9.10;5.88;;;12.20;77.50;;;;;;5111394;27;20035;-74
2022/04/04 12:58:35;;;;;;;8.50;5.88;;;12.20;79.70;;;;;;5131324;27;20513;-74
2022/04/04 13:01:15;;;;;;;12.07;7.30;;;12.10;78.90;;;;;;5094759;27;20035;-75
2022/04/04 13:03:48;;;;;;;12.43;6.78;;;12.10;78.80;;;;;;5097074;27;20082;-77